createdAt,value
2022-12-04T12:48:17.852Z,10.06
2022-12-04T12:51:28.444Z,9.64
2022-12-04T12:54:09.294Z,9.42
2022-12-04T12:56:54.171Z,8.92
2022-12-04T12:59:39.091Z,9.24
2022-12-04T13:02:24.422Z,8.90
2022-12-04T13:05:09.950Z,8.86
2022-12-04T13:07:55.358Z,8.87
2022-12-04T13:10:41.134Z,8.70
2022-12-04T13:13:26.308Z,8.71
2022-12-04T13:16:11.627Z,8.42
2022-12-04T13:18:56.925Z,8.51
2022-12-04T13:21:41.910Z,8.54
2022-12-04T13:24:26.661Z,8.12
2022-12-04T13:27:11.560Z,8.32
2022-12-04T13:29:56.829Z,8.16
2022-12-04T13:32:41.958Z,8.14
2022-12-04T13:35:26.865Z,7.76
2022-12-04T13:38:11.796Z,7.78
2022-12-04T13:40:56.596Z,7.72
2022-12-04T13:43:41.606Z,7.65
2022-12-04T13:46:26.469Z,7.70
2022-12-04T13:49:11.425Z,7.70
2022-12-04T13:51:57.226Z,7.52
2022-12-04T13:54:42.472Z,7.81
2022-12-04T13:57:27.367Z,7.97
2022-12-04T14:00:12.267Z,7.86
2022-12-04T14:02:57.244Z,8.01
2022-12-04T14:05:42.153Z,8.09
2022-12-04T14:08:27.935Z,7.80
2022-12-04T14:11:12.822Z,7.66
2022-12-04T14:13:58.690Z,7.64
2022-12-04T14:16:46.271Z,7.83
2022-12-04T14:19:31.124Z,7.76
2022-12-04T14:22:16.059Z,7.59
2022-12-04T14:25:01.073Z,7.64
2022-12-04T14:27:45.942Z,7.90
2022-12-04T14:30:32.455Z,7.44
2022-12-04T14:33:17.793Z,7.52
2022-12-04T14:36:02.710Z,7.72
2022-12-04T14:38:47.755Z,7.73
2022-12-04T14:41:33.565Z,7.89
2022-12-04T14:44:19.086Z,8.13
2022-12-04T14:47:03.822Z,7.67
2022-12-04T14:49:48.950Z,7.65
2022-12-04T14:52:33.813Z,8.13
2022-12-04T14:55:18.689Z,8.08
2022-12-04T14:58:03.488Z,7.88
2022-12-04T15:00:48.471Z,7.77
2022-12-04T15:03:33.425Z,7.88
2022-12-04T15:06:18.785Z,7.72
2022-12-04T15:09:03.664Z,7.71
2022-12-04T15:11:48.431Z,7.84
2022-12-04T15:14:33.399Z,7.86
2022-12-04T15:17:18.357Z,7.66
2022-12-04T15:20:03.942Z,7.59
2022-12-04T15:22:49.177Z,7.69
2022-12-04T15:25:34.064Z,7.51
2022-12-04T15:28:18.968Z,7.17
2022-12-04T15:31:03.965Z,7.23
2022-12-04T15:33:48.867Z,7.24
2022-12-04T15:36:33.709Z,7.03
